sensor_id;sensor_type;location;lat;lon;timestamp;temperature;humidity
21246;DHT22;10781;50.928;4.440;2023-10-19T00:01:16;17.10;99.90
21246;DHT22;10781;50.928;4.440;2023-10-19T00:03:43;17.20;99.90
21246;DHT22;10781;50.928;4.440;2023-10-19T00:06:15;17.30;99.90
21246;DHT22;10781;50.928;4.440;2023-10-19T00:08:43;17.20;99.90
21246;DHT22;10781;50.928;4.440;2023-10-19T00:11:09;17.30;99.90
21246;DHT22;10781;50.928;4.440;2023-10-19T00:13:39;17.40;99.90
21246;DHT22;10781;50.928;4.440;2023-10-19T00:16:06;17.40;99.90
21246;DHT22;10781;50.928;4.440;2023-10-19T00:18:38;17.50;99.90
21246;DHT22;10781;50.928;4.440;2023-10-19T00:21:08;17.50;99.90
21246;DHT22;10781;50.928;4.440;2023-10-19T00:23:45;17.50;99.90
21246;DHT22;10781;50.928;4.440;2023-10-19T00:26:13;17.40;99.90
21246;DHT22;10781;50.928;4.440;2023-10-19T00:28:48;17.30;99.90
21246;DHT22;10781;50.928;4.440;2023-10-19T00:31:24;17.30;99.90
21246;DHT22;10781;50.928;4.440;2023-10-19T00:33:50;17.50;99.90
21246;DHT22;10781;50.928;4.440;2023-10-19T00:36:20;17.60;99.90
21246;DHT22;10781;50.928;4.440;2023-10-19T00:38:47;17.50;99.90
21246;DHT22;10781;50.928;4.440;2023-10-19T00:41:13;17.50;99.90
21246;DHT22;10781;50.928;4.440;2023-10-19T00:43:42;17.50;99.90
21246;DHT22;10781;50.928;4.440;2023-10-19T00:46:18;17.60;99.90
21246;DHT22;10781;50.928;4.440;2023-10-19T00:48:59;17.70;99.90
21246;DHT22;10781;50.928;4.440;2023-10-19T00:51:31;17.70;99.90
21246;DHT22;10781;50.928;4.440;2023-10-19T00:56:30;17.60;99.90
21246;DHT22;10781;50.928;4.440;2023-10-19T00:58:59;17.50;99.90
21246;DHT22;10781;50.928;4.440;2023-10-19T01:01:41;17.50;99.90
21246;DHT22;10781;50.928;4.440;2023-10-19T01:04:16;17.50;99.90
21246;DHT22;10781;50.928;4.440;2023-10-19T01:06:48;17.70;99.90
21246;DHT22;10781;50.928;4.440;2023-10-19T01:09:30;17.50;99.90
21246;DHT22;10781;50.928;4.440;2023-10-19T01:12:03;17.60;99.90
21246;DHT22;10781;50.928;4.440;2023-10-19T01:17:56;17.70;99.90
21246;DHT22;10781;50.928;4.440;2023-10-19T01:20:26;17.80;99.90
21246;DHT22;10781;50.928;4.440;2023-10-19T01:23:01;17.80;99.90
21246;DHT22;10781;50.928;4.440;2023-10-19T01:25:47;17.70;99.90
21246;DHT22;10781;50.928;4.440;2023-10-19T01:28:24;17.70;99.90
21246;DHT22;10781;50.928;4.440;2023-10-19T01:30:54;17.70;99.90
21246;DHT22;10781;50.928;4.440;2023-10-19T01:33:22;17.70;99.90
21246;DHT22;10781;50.928;4.440;2023-10-19T01:35:48;17.70;99.90
21246;DHT22;10781;50.928;4.440;2023-10-19T01:38:33;17.60;99.90
21246;DHT22;10781;50.928;4.440;2023-10-19T01:41:03;17.60;99.90
21246;DHT22;10781;50.928;4.440;2023-10-19T01:43:48;17.70;99.90
21246;DHT22;10781;50.928;4.440;2023-10-19T01:46:16;17.70;99.90
21246;DHT22;10781;50.928;4.440;2023-10-19T01:49:02;17.60;99.90
21246;DHT22;10781;50.928;4.440;2023-10-19T01:51:31;17.60;99.90
21246;DHT22;10781;50.928;4.440;2023-10-19T01:53:59;17.60;99.90
21246;DHT22;10781;50.928;4.440;2023-10-19T01:56:26;17.60;99.90
21246;DHT22;10781;50.928;4.440;2023-10-19T01:58:52;17.70;99.90
21246;DHT22;10781;50.928;4.440;2023-10-19T02:01:20;17.70;99.90
21246;DHT22;10781;50.928;4.440;2023-10-19T02:03:47;17.60;99.90
21246;DHT22;10781;50.928;4.440;2023-10-19T02:06:18;17.50;99.90
21246;DHT22;10781;50.928;4.440;2023-10-19T02:08:52;17.60;99.90
21246;DHT22;10781;50.928;4.440;2023-10-19T02:11:25;17.70;99.90
21246;DHT22;10781;50.928;4.440;2023-10-19T02:13:54;17.80;99.90
21246;DHT22;10781;50.928;4.440;2023-10-19T02:16:21;17.60;99.90
21246;DHT22;10781;50.928;4.440;2023-10-19T02:18:57;17.60;99.90
21246;DHT22;10781;50.928;4.440;2023-10-19T02:21:22;17.60;99.90
21246;DHT22;10781;50.928;4.440;2023-10-19T02:23:49;17.50;99.90
21246;DHT22;10781;50.928;4.440;2023-10-19T02:26:20;17.40;99.90
21246;DHT22;10781;50.928;4.440;2023-10-19T02:28:48;17.40;99.90
21246;DHT22;10781;50.928;4.440;2023-10-19T02:31:17;17.50;99.90
21246;DHT22;10781;50.928;4.440;2023-10-19T02:33:51;17.50;99.90
21246;DHT22;10781;50.928;4.440;2023-10-19T02:36:27;17.50;99.90
21246;DHT22;10781;50.928;4.440;2023-10-19T02:39:01;17.50;99.90
21246;DHT22;10781;50.928;4.440;2023-10-19T02:41:34;17.40;99.90
21246;DHT22;10781;50.928;4.440;2023-10-19T02:44:01;17.30;99.90
21246;DHT22;10781;50.928;4.440;2023-10-19T02:46:32;17.30;99.90
21246;DHT22;10781;50.928;4.440;2023-10-19T02:49:03;17.20;99.90
21246;DHT22;10781;50.928;4.440;2023-10-19T02:51:29;17.10;99.90
21246;DHT22;10781;50.928;4.440;2023-10-19T02:53:56;17.10;99.90
21246;DHT22;10781;50.928;4.440;2023-10-19T02:56:22;17.00;99.90
21246;DHT22;10781;50.928;4.440;2023-10-19T02:58:52;17.00;99.90
21246;DHT22;10781;50.928;4.440;2023-10-19T03:01:21;16.90;99.90
21246;DHT22;10781;50.928;4.440;2023-10-19T03:03:55;16.90;99.90
21246;DHT22;10781;50.928;4.440;2023-10-19T03:06:29;16.80;99.90
21246;DHT22;10781;50.928;4.440;2023-10-19T03:08:59;16.80;99.90
21246;DHT22;10781;50.928;4.440;2023-10-19T03:11:27;16.80;99.90
21246;DHT22;10781;50.928;4.440;2023-10-19T03:13:56;16.80;99.90
21246;DHT22;10781;50.928;4.440;2023-10-19T03:16:23;16.90;99.90
21246;DHT22;10781;50.928;4.440;2023-10-19T03:18:56;17.10;99.90
21246;DHT22;10781;50.928;4.440;2023-10-19T03:21:21;17.10;99.90
21246;DHT22;10781;50.928;4.440;2023-10-19T03:23:53;17.10;99.90
21246;DHT22;10781;50.928;4.440;2023-10-19T03:26:19;17.20;99.90
21246;DHT22;10781;50.928;4.440;2023-10-19T03:28:57;17.30;99.90
21246;DHT22;10781;50.928;4.440;2023-10-19T03:31:49;17.20;99.90
21246;DHT22;10781;50.928;4.440;2023-10-19T03:34:15;17.20;99.90
21246;DHT22;10781;50.928;4.440;2023-10-19T03:36:44;17.20;99.90
21246;DHT22;10781;50.928;4.440;2023-10-19T03:39:10;17.40;99.90
21246;DHT22;10781;50.928;4.440;2023-10-19T03:41:41;17.20;99.90
21246;DHT22;10781;50.928;4.440;2023-10-19T03:44:13;17.30;99.90
21246;DHT22;10781;50.928;4.440;2023-10-19T03:46:44;17.40;99.90
21246;DHT22;10781;50.928;4.440;2023-10-19T03:49:40;17.50;99.90
21246;DHT22;10781;50.928;4.440;2023-10-19T03:52:07;17.60;99.90
21246;DHT22;10781;50.928;4.440;2023-10-19T03:54:37;17.60;99.90
21246;DHT22;10781;50.928;4.440;2023-10-19T03:57:10;17.50;99.90
21246;DHT22;10781;50.928;4.440;2023-10-19T03:59:55;17.50;99.90
21246;DHT22;10781;50.928;4.440;2023-10-19T04:02:28;17.50;99.90
21246;DHT22;10781;50.928;4.440;2023-10-19T04:04:55;17.50;99.90
21246;DHT22;10781;50.928;4.440;2023-10-19T04:07:23;17.50;99.90
21246;DHT22;10781;50.928;4.440;2023-10-19T04:09:52;17.50;99.90
21246;DHT22;10781;50.928;4.440;2023-10-19T04:12:34;17.60;99.90
21246;DHT22;10781;50.928;4.440;2023-10-19T04:15:02;17.50;99.90
21246;DHT22;10781;50.928;4.440;2023-10-19T04:17:47;17.40;99.90
21246;DHT22;10781;50.928;4.440;2023-10-19T04:20:18;17.40;99.90
21246;DHT22;10781;50.928;4.440;2023-10-19T04:22:45;17.40;99.90
21246;DHT22;10781;50.928;4.440;2023-10-19T04:25:12;17.50;99.90
21246;DHT22;10781;50.928;4.440;2023-10-19T04:27:39;17.50;99.90
21246;DHT22;10781;50.928;4.440;2023-10-19T04:30:05;17.50;99.90
21246;DHT22;10781;50.928;4.440;2023-10-19T04:32:41;17.50;99.90
21246;DHT22;10781;50.928;4.440;2023-10-19T04:35:07;17.50;99.90
21246;DHT22;10781;50.928;4.440;2023-10-19T04:37:35;17.60;99.90
21246;DHT22;10781;50.928;4.440;2023-10-19T04:40:01;17.50;99.90
21246;DHT22;10781;50.928;4.440;2023-10-19T04:42:27;17.40;99.90
21246;DHT22;10781;50.928;4.440;2023-10-19T04:44:54;17.50;99.90
21246;DHT22;10781;50.928;4.440;2023-10-19T04:47:21;17.40;99.90
21246;DHT22;10781;50.928;4.440;2023-10-19T04:49:47;17.40;99.90
21246;DHT22;10781;50.928;4.440;2023-10-19T04:52:13;17.50;99.90
21246;DHT22;10781;50.928;4.440;2023-10-19T04:54:38;17.60;99.90
21246;DHT22;10781;50.928;4.440;2023-10-19T04:57:04;17.80;99.90
21246;DHT22;10781;50.928;4.440;2023-10-19T04:59:30;17.70;99.90
21246;DHT22;10781;50.928;4.440;2023-10-19T05:01:59;17.70;99.90
21246;DHT22;10781;50.928;4.440;2023-10-19T05:04:28;17.70;99.90
21246;DHT22;10781;50.928;4.440;2023-10-19T05:06:55;17.50;99.90
21246;DHT22;10781;50.928;4.440;2023-10-19T05:09:20;17.50;99.90
21246;DHT22;10781;50.928;4.440;2023-10-19T05:11:46;17.50;99.90
21246;DHT22;10781;50.928;4.440;2023-10-19T05:14:15;17.50;99.90
21246;DHT22;10781;50.928;4.440;2023-10-19T05:16:40;17.50;99.90
21246;DHT22;10781;50.928;4.440;2023-10-19T05:19:06;17.50;99.90
21246;DHT22;10781;50.928;4.440;2023-10-19T05:21:32;17.40;99.90
21246;DHT22;10781;50.928;4.440;2023-10-19T05:23:59;17.30;99.90
21246;DHT22;10781;50.928;4.440;2023-10-19T05:26:28;17.50;99.90
21246;DHT22;10781;50.928;4.440;2023-10-19T05:28:54;17.50;99.90
21246;DHT22;10781;50.928;4.440;2023-10-19T05:31:20;17.50;99.90
21246;DHT22;10781;50.928;4.440;2023-10-19T05:33:46;17.60;99.90
21246;DHT22;10781;50.928;4.440;2023-10-19T05:36:14;17.60;99.90
21246;DHT22;10781;50.928;4.440;2023-10-19T05:38:40;17.50;99.90
21246;DHT22;10781;50.928;4.440;2023-10-19T05:41:06;17.50;99.90
21246;DHT22;10781;50.928;4.440;2023-10-19T05:43:33;17.50;99.90
21246;DHT22;10781;50.928;4.440;2023-10-19T05:46:00;17.60;99.90
21246;DHT22;10781;50.928;4.440;2023-10-19T05:48:26;17.60;99.90
21246;DHT22;10781;50.928;4.440;2023-10-19T05:50:52;17.70;99.90
21246;DHT22;10781;50.928;4.440;2023-10-19T05:53:17;17.70;99.90
21246;DHT22;10781;50.928;4.440;2023-10-19T05:55:48;17.70;99.90
21246;DHT22;10781;50.928;4.440;2023-10-19T05:58:15;17.60;99.90
21246;DHT22;10781;50.928;4.440;2023-10-19T06:00:41;17.60;99.90
21246;DHT22;10781;50.928;4.440;2023-10-19T06:03:07;17.50;99.90
21246;DHT22;10781;50.928;4.440;2023-10-19T06:05:33;17.50;99.90
21246;DHT22;10781;50.928;4.440;2023-10-19T06:07:59;17.50;99.90
21246;DHT22;10781;50.928;4.440;2023-10-19T06:10:27;17.50;99.90
21246;DHT22;10781;50.928;4.440;2023-10-19T06:12:52;17.50;99.90
21246;DHT22;10781;50.928;4.440;2023-10-19T06:15:20;17.50;99.90
21246;DHT22;10781;50.928;4.440;2023-10-19T06:17:50;17.50;99.90
21246;DHT22;10781;50.928;4.440;2023-10-19T06:20:16;17.30;99.90
21246;DHT22;10781;50.928;4.440;2023-10-19T06:22:57;17.40;99.90
21246;DHT22;10781;50.928;4.440;2023-10-19T06:25:30;17.40;99.90
21246;DHT22;10781;50.928;4.440;2023-10-19T06:27:56;17.20;99.90
21246;DHT22;10781;50.928;4.440;2023-10-19T06:30:25;17.40;99.90
21246;DHT22;10781;50.928;4.440;2023-10-19T06:32:54;17.40;99.90
21246;DHT22;10781;50.928;4.440;2023-10-19T06:35:20;17.40;99.90
21246;DHT22;10781;50.928;4.440;2023-10-19T06:37:46;17.40;99.90
21246;DHT22;10781;50.928;4.440;2023-10-19T06:40:13;17.30;99.90
21246;DHT22;10781;50.928;4.440;2023-10-19T06:42:43;17.30;99.90
21246;DHT22;10781;50.928;4.440;2023-10-19T06:45:09;17.30;99.90
21246;DHT22;10781;50.928;4.440;2023-10-19T06:47:45;17.30;99.90
21246;DHT22;10781;50.928;4.440;2023-10-19T06:50:14;17.30;99.90
21246;DHT22;10781;50.928;4.440;2023-10-19T06:52:42;17.40;99.90
21246;DHT22;10781;50.928;4.440;2023-10-19T06:55:10;17.40;99.90
21246;DHT22;10781;50.928;4.440;2023-10-19T06:57:43;17.30;99.90
21246;DHT22;10781;50.928;4.440;2023-10-19T07:00:13;17.20;99.90
21246;DHT22;10781;50.928;4.440;2023-10-19T07:02:46;17.10;99.90
21246;DHT22;10781;50.928;4.440;2023-10-19T07:05:13;17.10;99.90
21246;DHT22;10781;50.928;4.440;2023-10-19T07:07:50;17.00;99.90
21246;DHT22;10781;50.928;4.440;2023-10-19T07:10:18;16.80;99.90
21246;DHT22;10781;50.928;4.440;2023-10-19T07:12:46;16.60;99.90
21246;DHT22;10781;50.928;4.440;2023-10-19T07:15:12;16.50;99.90
21246;DHT22;10781;50.928;4.440;2023-10-19T07:17:45;16.50;99.90
21246;DHT22;10781;50.928;4.440;2023-10-19T07:20:12;16.60;99.90
21246;DHT22;10781;50.928;4.440;2023-10-19T07:22:58;16.70;99.90
21246;DHT22;10781;50.928;4.440;2023-10-19T07:25:34;16.90;99.90
21246;DHT22;10781;50.928;4.440;2023-10-19T07:28:11;17.00;99.90
21246;DHT22;10781;50.928;4.440;2023-10-19T07:30:38;17.00;99.90
21246;DHT22;10781;50.928;4.440;2023-10-19T07:33:04;17.10;99.90
21246;DHT22;10781;50.928;4.440;2023-10-19T07:35:34;17.10;99.90
21246;DHT22;10781;50.928;4.440;2023-10-19T07:38:00;17.10;99.90
21246;DHT22;10781;50.928;4.440;2023-10-19T07:40:29;17.20;99.90
21246;DHT22;10781;50.928;4.440;2023-10-19T07:42:54;17.40;99.90
21246;DHT22;10781;50.928;4.440;2023-10-19T07:45:20;17.40;99.90
21246;DHT22;10781;50.928;4.440;2023-10-19T07:47:47;17.60;99.90
21246;DHT22;10781;50.928;4.440;2023-10-19T07:50:13;17.70;99.90
21246;DHT22;10781;50.928;4.440;2023-10-19T07:52:46;17.60;99.90
21246;DHT22;10781;50.928;4.440;2023-10-19T07:55:14;17.80;99.90
21246;DHT22;10781;50.928;4.440;2023-10-19T07:57:41;17.80;99.90
21246;DHT22;10781;50.928;4.440;2023-10-19T08:00:08;17.80;99.90
21246;DHT22;10781;50.928;4.440;2023-10-19T08:02:37;17.60;99.90
21246;DHT22;10781;50.928;4.440;2023-10-19T08:05:08;17.60;99.90
21246;DHT22;10781;50.928;4.440;2023-10-19T08:07:34;17.60;99.90
21246;DHT22;10781;50.928;4.440;2023-10-19T08:10:05;17.60;99.90
21246;DHT22;10781;50.928;4.440;2023-10-19T08:12:32;17.70;99.90
21246;DHT22;10781;50.928;4.440;2023-10-19T08:15:01;17.80;99.90
21246;DHT22;10781;50.928;4.440;2023-10-19T08:17:27;17.80;99.90
21246;DHT22;10781;50.928;4.440;2023-10-19T08:19:53;18.00;99.90
21246;DHT22;10781;50.928;4.440;2023-10-19T08:22:18;18.20;99.90
21246;DHT22;10781;50.928;4.440;2023-10-19T08:24:44;18.40;99.90
21246;DHT22;10781;50.928;4.440;2023-10-19T08:27:11;18.40;99.90
21246;DHT22;10781;50.928;4.440;2023-10-19T08:29:38;18.60;99.90
21246;DHT22;10781;50.928;4.440;2023-10-19T08:32:04;18.50;99.90
21246;DHT22;10781;50.928;4.440;2023-10-19T08:34:36;18.60;99.90
21246;DHT22;10781;50.928;4.440;2023-10-19T08:37:03;18.70;99.90
21246;DHT22;10781;50.928;4.440;2023-10-19T08:39:30;18.70;99.90
21246;DHT22;10781;50.928;4.440;2023-10-19T08:42:06;18.70;99.90
21246;DHT22;10781;50.928;4.440;2023-10-19T08:44:34;18.70;99.90
21246;DHT22;10781;50.928;4.440;2023-10-19T08:47:01;18.60;99.90
21246;DHT22;10781;50.928;4.440;2023-10-19T08:49:26;18.60;99.90
21246;DHT22;10781;50.928;4.440;2023-10-19T08:51:53;18.50;99.90
21246;DHT22;10781;50.928;4.440;2023-10-19T08:54:20;18.40;99.90
21246;DHT22;10781;50.928;4.440;2023-10-19T08:56:46;18.40;99.90
21246;DHT22;10781;50.928;4.440;2023-10-19T08:59:15;18.20;99.90
21246;DHT22;10781;50.928;4.440;2023-10-19T09:01:41;18.00;99.90
21246;DHT22;10781;50.928;4.440;2023-10-19T09:04:13;18.00;99.90
21246;DHT22;10781;50.928;4.440;2023-10-19T09:06:39;18.20;99.90
21246;DHT22;10781;50.928;4.440;2023-10-19T09:09:12;18.10;99.90
21246;DHT22;10781;50.928;4.440;2023-10-19T09:11:51;18.00;99.90
21246;DHT22;10781;50.928;4.440;2023-10-19T09:14:34;17.90;99.90
21246;DHT22;10781;50.928;4.440;2023-10-19T09:17:01;18.00;99.90
21246;DHT22;10781;50.928;4.440;2023-10-19T09:19:40;18.00;99.90
21246;DHT22;10781;50.928;4.440;2023-10-19T09:22:07;18.30;99.90
21246;DHT22;10781;50.928;4.440;2023-10-19T09:24:37;18.50;99.90
21246;DHT22;10781;50.928;4.440;2023-10-19T09:27:03;18.70;99.90
21246;DHT22;10781;50.928;4.440;2023-10-19T09:29:30;18.50;99.90
21246;DHT22;10781;50.928;4.440;2023-10-19T09:31:58;18.30;99.90
21246;DHT22;10781;50.928;4.440;2023-10-19T09:34:31;18.20;99.90
21246;DHT22;10781;50.928;4.440;2023-10-19T09:37:01;18.50;99.90
21246;DHT22;10781;50.928;4.440;2023-10-19T09:39:31;18.60;99.90
21246;DHT22;10781;50.928;4.440;2023-10-19T09:42:02;18.50;99.90
21246;DHT22;10781;50.928;4.440;2023-10-19T09:44:34;18.50;99.90
21246;DHT22;10781;50.928;4.440;2023-10-19T09:47:10;18.40;99.90
21246;DHT22;10781;50.928;4.440;2023-10-19T09:49:36;18.60;99.90
21246;DHT22;10781;50.928;4.440;2023-10-19T09:52:03;18.70;99.90
21246;DHT22;10781;50.928;4.440;2023-10-19T09:54:50;18.70;99.90
21246;DHT22;10781;50.928;4.440;2023-10-19T09:57:25;18.60;99.90
21246;DHT22;10781;50.928;4.440;2023-10-19T09:59:58;18.70;99.90
21246;DHT22;10781;50.928;4.440;2023-10-19T10:02:27;18.60;99.90
21246;DHT22;10781;50.928;4.440;2023-10-19T10:04:53;18.50;99.90
21246;DHT22;10781;50.928;4.440;2023-10-19T10:07:18;18.20;99.90
21246;DHT22;10781;50.928;4.440;2023-10-19T10:09:45;18.20;99.90
21246;DHT22;10781;50.928;4.440;2023-10-19T10:12:23;18.20;99.90
21246;DHT22;10781;50.928;4.440;2023-10-19T10:14:59;18.20;99.90
21246;DHT22;10781;50.928;4.440;2023-10-19T10:17:27;18.20;99.90
21246;DHT22;10781;50.928;4.440;2023-10-19T10:20:28;18.20;99.90
21246;DHT22;10781;50.928;4.440;2023-10-19T10:23:17;18.40;99.90
21246;DHT22;10781;50.928;4.440;2023-10-19T10:25:45;18.40;99.90
21246;DHT22;10781;50.928;4.440;2023-10-19T10:28:14;18.40;99.90
21246;DHT22;10781;50.928;4.440;2023-10-19T10:31:09;18.60;99.90
21246;DHT22;10781;50.928;4.440;2023-10-19T10:33:42;18.60;99.90
21246;DHT22;10781;50.928;4.440;2023-10-19T10:36:11;18.60;99.90
21246;DHT22;10781;50.928;4.440;2023-10-19T10:38:37;18.70;99.90
21246;DHT22;10781;50.928;4.440;2023-10-19T10:41:03;18.70;99.90
21246;DHT22;10781;50.928;4.440;2023-10-19T10:43:29;18.90;99.90
21246;DHT22;10781;50.928;4.440;2023-10-19T10:46:07;19.00;99.90
21246;DHT22;10781;50.928;4.440;2023-10-19T10:48:33;18.80;99.90
21246;DHT22;10781;50.928;4.440;2023-10-19T10:51:01;18.70;99.90
21246;DHT22;10781;50.928;4.440;2023-10-19T10:53:27;19.00;99.90
21246;DHT22;10781;50.928;4.440;2023-10-19T10:55:53;19.10;99.90
21246;DHT22;10781;50.928;4.440;2023-10-19T10:58:19;19.10;99.90
21246;DHT22;10781;50.928;4.440;2023-10-19T11:00:46;18.90;99.90
21246;DHT22;10781;50.928;4.440;2023-10-19T11:03:20;18.70;99.90
21246;DHT22;10781;50.928;4.440;2023-10-19T11:05:47;18.70;99.90
21246;DHT22;10781;50.928;4.440;2023-10-19T11:08:14;18.60;99.90
21246;DHT22;10781;50.928;4.440;2023-10-19T11:10:46;18.70;99.90
21246;DHT22;10781;50.928;4.440;2023-10-19T11:13:17;18.60;99.90
21246;DHT22;10781;50.928;4.440;2023-10-19T11:15:51;18.60;99.90
21246;DHT22;10781;50.928;4.440;2023-10-19T11:18:41;18.60;99.90
21246;DHT22;10781;50.928;4.440;2023-10-19T11:21:12;18.50;99.90
21246;DHT22;10781;50.928;4.440;2023-10-19T11:23:45;18.70;99.90
21246;DHT22;10781;50.928;4.440;2023-10-19T11:26:12;18.80;99.90
21246;DHT22;10781;50.928;4.440;2023-10-19T11:28:39;19.00;99.90
21246;DHT22;10781;50.928;4.440;2023-10-19T11:31:17;19.20;99.90
21246;DHT22;10781;50.928;4.440;2023-10-19T11:33:44;19.10;99.90
21246;DHT22;10781;50.928;4.440;2023-10-19T11:36:14;19.10;99.90
21246;DHT22;10781;50.928;4.440;2023-10-19T11:38:45;18.90;99.90
21246;DHT22;10781;50.928;4.440;2023-10-19T11:41:12;18.80;99.90
21246;DHT22;10781;50.928;4.440;2023-10-19T11:43:42;18.90;99.90
21246;DHT22;10781;50.928;4.440;2023-10-19T11:46:08;19.00;99.90
21246;DHT22;10781;50.928;4.440;2023-10-19T11:48:36;19.00;99.90
21246;DHT22;10781;50.928;4.440;2023-10-19T11:51:02;18.90;99.90
21246;DHT22;10781;50.928;4.440;2023-10-19T11:53:36;18.80;99.90
21246;DHT22;10781;50.928;4.440;2023-10-19T11:56:03;18.80;99.90
21246;DHT22;10781;50.928;4.440;2023-10-19T11:58:30;18.90;99.90
21246;DHT22;10781;50.928;4.440;2023-10-19T12:01:03;18.70;99.90
21246;DHT22;10781;50.928;4.440;2023-10-19T12:03:34;18.50;99.90
21246;DHT22;10781;50.928;4.440;2023-10-19T12:06:06;18.50;99.90
21246;DHT22;10781;50.928;4.440;2023-10-19T12:08:35;18.40;99.90
21246;DHT22;10781;50.928;4.440;2023-10-19T12:11:02;18.40;99.90
21246;DHT22;10781;50.928;4.440;2023-10-19T12:13:30;18.30;99.90
21246;DHT22;10781;50.928;4.440;2023-10-19T12:15:57;18.20;99.90
21246;DHT22;10781;50.928;4.440;2023-10-19T12:18:23;18.20;99.90
21246;DHT22;10781;50.928;4.440;2023-10-19T12:20:51;18.10;99.90
21246;DHT22;10781;50.928;4.440;2023-10-19T12:23:22;18.10;99.90
21246;DHT22;10781;50.928;4.440;2023-10-19T12:25:49;18.10;99.90
21246;DHT22;10781;50.928;4.440;2023-10-19T12:28:14;18.10;99.90
21246;DHT22;10781;50.928;4.440;2023-10-19T12:30:41;18.00;99.90
21246;DHT22;10781;50.928;4.440;2023-10-19T12:33:07;17.90;99.90
21246;DHT22;10781;50.928;4.440;2023-10-19T12:35:40;17.80;99.90
21246;DHT22;10781;50.928;4.440;2023-10-19T12:38:32;17.90;99.90
21246;DHT22;10781;50.928;4.440;2023-10-19T12:40:58;17.80;99.90
21246;DHT22;10781;50.928;4.440;2023-10-19T12:43:24;17.80;99.90
21246;DHT22;10781;50.928;4.440;2023-10-19T12:45:50;17.70;99.90
21246;DHT22;10781;50.928;4.440;2023-10-19T12:48:19;17.90;99.90
21246;DHT22;10781;50.928;4.440;2023-10-19T12:50:46;18.20;99.90
21246;DHT22;10781;50.928;4.440;2023-10-19T12:53:13;18.40;99.90
21246;DHT22;10781;50.928;4.440;2023-10-19T12:55:39;18.90;99.90
21246;DHT22;10781;50.928;4.440;2023-10-19T12:58:05;19.10;99.90
21246;DHT22;10781;50.928;4.440;2023-10-19T13:00:35;19.50;99.90
21246;DHT22;10781;50.928;4.440;2023-10-19T13:03:03;20.40;99.90
21246;DHT22;10781;50.928;4.440;2023-10-19T13:05:36;20.60;99.90
21246;DHT22;10781;50.928;4.440;2023-10-19T13:08:05;20.80;99.90
21246;DHT22;10781;50.928;4.440;2023-10-19T13:10:32;21.30;99.90
21246;DHT22;10781;50.928;4.440;2023-10-19T13:13:02;21.80;99.90
21246;DHT22;10781;50.928;4.440;2023-10-19T13:15:33;22.30;99.90
21246;DHT22;10781;50.928;4.440;2023-10-19T13:18:00;22.10;99.90
21246;DHT22;10781;50.928;4.440;2023-10-19T13:20:27;22.80;99.90
21246;DHT22;10781;50.928;4.440;2023-10-19T13:22:53;23.10;99.90
21246;DHT22;10781;50.928;4.440;2023-10-19T13:25:21;22.80;99.90
21246;DHT22;10781;50.928;4.440;2023-10-19T13:28:08;22.10;99.90
21246;DHT22;10781;50.928;4.440;2023-10-19T13:30:42;22.10;99.90
21246;DHT22;10781;50.928;4.440;2023-10-19T13:33:09;23.50;99.90
21246;DHT22;10781;50.928;4.440;2023-10-19T13:35:40;23.20;99.90
21246;DHT22;10781;50.928;4.440;2023-10-19T13:38:10;23.20;99.90
21246;DHT22;10781;50.928;4.440;2023-10-19T13:40:36;24.20;99.90
21246;DHT22;10781;50.928;4.440;2023-10-19T13:43:04;25.00;99.90
21246;DHT22;10781;50.928;4.440;2023-10-19T13:45:32;25.10;99.90
21246;DHT22;10781;50.928;4.440;2023-10-19T13:48:02;24.80;99.90
21246;DHT22;10781;50.928;4.440;2023-10-19T13:50:29;23.70;99.90
21246;DHT22;10781;50.928;4.440;2023-10-19T13:52:55;22.80;99.90
21246;DHT22;10781;50.928;4.440;2023-10-19T13:55:22;22.30;99.90
21246;DHT22;10781;50.928;4.440;2023-10-19T13:57:49;21.90;99.90
21246;DHT22;10781;50.928;4.440;2023-10-19T14:00:16;21.50;99.90
21246;DHT22;10781;50.928;4.440;2023-10-19T14:02:49;22.00;99.90
21246;DHT22;10781;50.928;4.440;2023-10-19T14:05:15;22.20;99.90
21246;DHT22;10781;50.928;4.440;2023-10-19T14:07:41;21.70;99.90
21246;DHT22;10781;50.928;4.440;2023-10-19T14:10:08;21.30;99.90
21246;DHT22;10781;50.928;4.440;2023-10-19T14:12:34;21.50;99.90
21246;DHT22;10781;50.928;4.440;2023-10-19T14:15:00;21.30;99.90
21246;DHT22;10781;50.928;4.440;2023-10-19T14:17:26;20.50;99.90
21246;DHT22;10781;50.928;4.440;2023-10-19T14:19:52;20.40;99.90
21246;DHT22;10781;50.928;4.440;2023-10-19T14:22:18;20.20;99.90
21246;DHT22;10781;50.928;4.440;2023-10-19T14:24:44;20.10;99.90
21246;DHT22;10781;50.928;4.440;2023-10-19T14:27:10;20.00;99.90
21246;DHT22;10781;50.928;4.440;2023-10-19T14:29:36;20.20;99.90
21246;DHT22;10781;50.928;4.440;2023-10-19T14:32:01;20.30;99.90
21246;DHT22;10781;50.928;4.440;2023-10-19T14:34:29;20.20;99.90
21246;DHT22;10781;50.928;4.440;2023-10-19T14:36:55;20.20;99.90
21246;DHT22;10781;50.928;4.440;2023-10-19T14:39:21;20.20;99.90
21246;DHT22;10781;50.928;4.440;2023-10-19T14:41:46;20.20;99.90
21246;DHT22;10781;50.928;4.440;2023-10-19T14:44:12;20.10;99.90
21246;DHT22;10781;50.928;4.440;2023-10-19T14:46:38;20.00;99.90
21246;DHT22;10781;50.928;4.440;2023-10-19T14:49:03;20.10;99.90
21246;DHT22;10781;50.928;4.440;2023-10-19T14:51:30;20.00;99.90
21246;DHT22;10781;50.928;4.440;2023-10-19T14:53:56;20.10;99.90
21246;DHT22;10781;50.928;4.440;2023-10-19T14:56:21;19.90;99.90
21246;DHT22;10781;50.928;4.440;2023-10-19T14:58:47;19.90;99.90
21246;DHT22;10781;50.928;4.440;2023-10-19T15:01:13;20.00;99.90
21246;DHT22;10781;50.928;4.440;2023-10-19T15:03:45;20.00;99.90
21246;DHT22;10781;50.928;4.440;2023-10-19T15:06:10;20.10;99.90
21246;DHT22;10781;50.928;4.440;2023-10-19T15:08:36;20.30;99.90
21246;DHT22;10781;50.928;4.440;2023-10-19T15:11:02;20.30;99.90
21246;DHT22;10781;50.928;4.440;2023-10-19T15:13:27;20.10;99.90
21246;DHT22;10781;50.928;4.440;2023-10-19T15:15:53;20.20;99.90
21246;DHT22;10781;50.928;4.440;2023-10-19T15:18:20;20.30;99.90
21246;DHT22;10781;50.928;4.440;2023-10-19T15:20:46;20.40;99.90
21246;DHT22;10781;50.928;4.440;2023-10-19T15:23:11;20.60;99.90
21246;DHT22;10781;50.928;4.440;2023-10-19T15:25:38;20.50;99.90
21246;DHT22;10781;50.928;4.440;2023-10-19T15:28:05;20.70;99.90
21246;DHT22;10781;50.928;4.440;2023-10-19T15:30:31;20.70;99.90
21246;DHT22;10781;50.928;4.440;2023-10-19T15:32:56;20.80;99.90
21246;DHT22;10781;50.928;4.440;2023-10-19T15:35:22;20.70;99.90
21246;DHT22;10781;50.928;4.440;2023-10-19T15:37:50;20.70;99.90
21246;DHT22;10781;50.928;4.440;2023-10-19T15:40:19;20.80;99.90
21246;DHT22;10781;50.928;4.440;2023-10-19T15:42:45;20.70;99.90
21246;DHT22;10781;50.928;4.440;2023-10-19T15:45:13;20.60;99.90
21246;DHT22;10781;50.928;4.440;2023-10-19T15:47:40;20.60;99.90
21246;DHT22;10781;50.928;4.440;2023-10-19T15:50:07;20.50;99.90